Panna Maria, Texas
Current Conditions -  °F | °C
As of 2:15 AM on Sunday 26 Oct 2014 (Local Time) from KPEZ Reporting Station
Clear Clear  
Wind Chill: 64°   Ceiling: Unl
Heat Index: 64°   Visibility: 10mi
Dew Point: 60°   Wind: 0mph
Humidity: 90%   Direction: NA
Pressure: 30.08"   Gusts: NA
Location:  28.96°N, 97.9°W
Report Text: KPEZ 260715Z AUTO 00000KT 10SM CLR 18/16 A3008 RMK AO2 T01750158
Loading
Personal Weather Stations






























Interactive Weather Map
Tropical Storm Tracking
New forecast layout! Learn more

10-Day Weather Forecast

Advertisements
Track Severe Weather on mobile